Hovedside
METAR-TAF:

METAR-TAF

Lufthavner :

Port Said, Egypt

breddegrad: 31-16N, lengdegrad: 032-18E, høyde over havet: 6 m

Gjeldene værobservasjon

Denne rapporten ble laget for 1 time og 52 minutter siden, klokken 03:00 UTC
Vind 5 kt fra Vest-sørvest
Temperatur 8°C
Luftfuktighet 93%
Trykk 1022 hPa
Sikt: 7000 m
Få skyer i en høyde av 2500 ft

METAR: HEPS 290300Z 24005KT 7000 FEW025 08/07 Q1022 NOSIG

Tid: 06:52 (04:52 UTC)

Varsel

Denne rapporten ble laget for 5 timer og 52 minutter siden, klokken 23:00 UTC
Varsel gyldig fra 29. klokken 00 UTC til 30. klokken 06 UTC
Vind 11 kt fra Vest
Sikt 10 km eller mer
Spredte skyer i en høyde av 2500 ft
Sannsynlighet 30% :
Midlertidig
fra 29. klokken 00 UTC til 29. klokken 12 UTC
Sikt: 6000 m
Brutte skyer i en høyde av 2000 ft, Bygeskyer.
lett regn

TAF: HEPS 282300Z 2900/3006 27011KT 9999 SCT025 PROB30 TEMPO 2900/2912 6000 -RA BKN020CB

Værobservasjoner og værvarsel for over 4000 flyplasser (METAR- og TAF-rapporter).

Tilgjengelige stasjoner er representert av de røde og gule prikkene på kartet.

Hold musepekeren over prikken for å se navnet på stasjonen.

Klikk så for å se værobservasjoner og -varsler.

For å forandre kartet kan du klikke på den grønne knappen med svart kryss for å zoome inn, på den grønne knappen med strek for å zoome ut, eller på de grønne pilene for å se tilstøtende kart.


METAR-TAF: